Flight Track Log - Related Links

Times and Time Zones

All times are in EDT time to prevent confusion due to time zone crossing. See the AAL1428 flight status page for this flight to view local times or setup timezone preferences in your user account.

Time Position Orientation Groundspeed Altitude Reporting Facility
EDT Latitude Longitude Course Direction KTS MPH feet Rate Location/Type
Fri 04:31:42 PM 32.8667 -97.0333 65° Northeast 186 214 1,500  Level Dallas / Fort Worth TRACON
Fri 04:32:24 PM 32.8333 -97.0167 157° South 231 266 2,500 1,927 Climbing Dallas / Fort Worth TRACON
Fri 04:33:31 PM 32.7667 -96.9833 157° South 275 316 5,000 2,438 Climbing Dallas / Fort Worth TRACON
Fri 04:34:00 PM 32.6833 -96.8160 90° East  Level FlightAware Approximate
Fri 04:34:32 PM 32.6833 -96.9667 170° South 279 321 7,700  Level Dallas / Fort Worth TRACON
Fri 04:35:00 PM 32.7220 -96.6843 68° East  Level FlightAware Approximate
Fri 04:36:00 PM 32.7655 -96.5536 68° East  Level FlightAware Approximate
Fri 04:36:36 PM 32.6397 -96.7719 105° East 318 366 10,000  Level Fort Worth Center
Fri 04:37:00 PM 32.8145 -96.4257 65° Northeast  Level FlightAware Approximate
Fri 04:37:37 PM 32.6308 -96.6783 96° East 318 366 10,100  Level Fort Worth Center
Fri 04:38:36 PM 32.6217 -96.5575 95° East 323 372 10,600 1,563 Climbing Fort Worth Center
Fri 04:39:36 PM 32.6292 -96.4514 85° East 328 377 13,200 2,281 Climbing Fort Worth Center
Fri 04:40:37 PM 32.6514 -96.3425 76° East 328 377 15,200 2,100 Climbing Fort Worth Center
Fri 04:41:36 PM 32.6797 -96.2311 73° East 341 392 17,400 1,563 Climbing Fort Worth Center
Fri 04:42:36 PM 32.7078 -96.1122 74° East 355 409 18,300 1,250 Climbing Fort Worth Center
Fri 04:43:36 PM 32.7397 -95.9808 74° East 394 453 19,900 1,650 Climbing Fort Worth Center
Fri 04:44:36 PM 32.7714 -95.8469 74° East 408 470 21,600 1,550 Climbing Fort Worth Center
Fri 04:45:36 PM 32.8011 -95.7156 75° East 414 476 23,000 694 Climbing Fort Worth Center
Fri 04:46:37 PM 32.8306 -95.5789 76° East 414 476 23,000  Level Fort Worth Center
Fri 04:47:36 PM 32.8597 -95.4472 75° East 414 476 23,000  Level Fort Worth Center
Fri 04:48:36 PM 32.8911 -95.3156 74° East 414 476 23,000  Level Fort Worth Center
Fri 04:49:36 PM 32.9036 -95.1914 83° East 414 476 23,000  Level Fort Worth Center
Fri 04:50:36 PM 32.9242 -95.0550 80° East 414 476 23,000  Level Fort Worth Center
Fri 04:51:36 PM 32.9464 -94.9206 79° East 414 476 23,000  Level Fort Worth Center
Fri 04:52:36 PM 32.9667 -94.7839 80° East 414 476 23,000 100 Level Fort Worth Center
Fri 04:53:36 PM 32.9867 -94.6469 80° East 414 476 23,200 800 Climbing Fort Worth Center
Fri 04:54:36 PM 33.0086 -94.5125 79° East 414 476 24,600 1,350 Climbing Fort Worth Center
Fri 04:55:36 PM 33.0283 -94.3733 80° East 414 476 25,900 1,300 Climbing Fort Worth Center
Fri 04:56:36 PM 33.0500 -94.2314 80° East 419 482 27,200 1,400 Climbing Fort Worth Center
Fri 04:57:36 PM 33.0561 -94.0725 87° East 429 494 28,700 1,500 Climbing Fort Worth Center
Fri 04:58:36 PM 33.0400 -93.9317 98° East 424 488 30,200 1,250 Climbing Fort Worth Center
Fri 04:59:36 PM 33.0233 -93.7886 98° East 429 494 31,200 950 Climbing Fort Worth Center
Fri 05:00:36 PM 33.0108 -93.6456 96° East 429 494 32,100 900 Climbing Fort Worth Center
Fri 05:01:36 PM 32.9961 -93.5075 97° East 424 488 33,000 450 Climbing Fort Worth Center
Fri 05:02:36 PM 32.9811 -93.3644 97° East 424 488 33,000  Level Fort Worth Center
Fri 05:03:36 PM 32.9661 -93.2242 97° East 424 488 33,000  Level Fort Worth Center
Fri 05:04:37 PM 32.9511 -93.0861 97° East 424 488 33,000  Level Fort Worth Center
Fri 05:05:36 PM 32.9356 -92.9458 97° East 424 488 33,000  Level Fort Worth Center
Fri 05:06:36 PM 32.9181 -92.8081 99° East 424 488 33,000  Level Fort Worth Center
Fri 05:07:36 PM 32.9003 -92.6656 98° East 424 488 33,000  Level Fort Worth Center
Fri 05:08:36 PM 32.8867 -92.5253 97° East 424 488 33,000  Level Fort Worth Center
Fri 05:10:38 PM 32.8519 -92.2442 98° East 429 494 33,000  Level Memphis Center
Fri 05:11:38 PM 32.8331 -92.1078 99° East 424 488 33,000  Level Memphis Center
Fri 05:12:38 PM 32.8139 -91.9814 100° East 424 488 33,000  Level Memphis Center
Fri 05:13:38 PM 32.7967 -91.8425 98° East 424 488 33,000  Level Memphis Center
Fri 05:14:38 PM 32.7797 -91.6892 97° East 424 488 33,000  Level Memphis Center
Fri 05:15:38 PM 32.7603 -91.5531 100° East 424 488 33,000  Level Memphis Center
Fri 05:16:38 PM 32.7531 -91.4144 94° East 424 488 33,000  Level Memphis Center
Fri 05:17:38 PM 32.7564 -91.2714 88° East 424 488 33,000  Level Memphis Center
Fri 05:18:38 PM 32.7656 -91.1306 86° East 424 488 33,000  Level Memphis Center
Fri 05:19:38 PM 32.7725 -90.9947 86° East 418 481 33,000  Level Memphis Center
Fri 05:20:38 PM 32.7817 -90.8514 86° East 418 481 33,000  Level Memphis Center
Fri 05:21:38 PM 32.7906 -90.7156 86° East 423 487 33,000  Level Memphis Center
Fri 05:22:38 PM 32.8075 -90.5772 82° East 423 487 33,000  Level Memphis Center
Fri 05:23:38 PM 32.8222 -90.4364 83° East 428 493 33,000  Level Memphis Center
Fri 05:24:38 PM 32.8389 -90.2956 82° East 428 493 33,000  Level Memphis Center
Fri 05:25:39 PM 32.8556 -90.1519 82° East 428 493 33,000  Level Memphis Center
Fri 05:26:38 PM 32.8678 -90.0111 84° East 428 493 33,000  Level Memphis Center
Fri 05:27:38 PM 32.8631 -89.8750 92° East 428 493 33,000  Level Memphis Center
Fri 05:28:38 PM 32.8353 -89.7367 103° East 434 499 33,000  Level Memphis Center
Fri 05:29:38 PM 32.7867 -89.6133 115° Southeast 424 488 33,000  Level Memphis Center
Fri 05:30:38 PM 32.7378 -89.4903 115° Southeast 414 476 33,000  Level Memphis Center
Fri 05:31:38 PM 32.6889 -89.3650 115° Southeast 414 476 33,000  Level Memphis Center
Fri 05:32:39 PM 32.6397 -89.2372 115° Southeast 414 476 33,000  Level Memphis Center
Fri 05:33:38 PM 32.5906 -89.1122 115° Southeast 419 482 33,000  Level Memphis Center
Fri 05:34:38 PM 32.5411 -88.9872 115° Southeast 419 482 33,000  Level Memphis Center
Fri 05:35:38 PM 32.4936 -88.8450 112° Southeast 419 482 33,000  Level Memphis Center
Fri 05:38:26 PM 32.4558 -88.4719 97° East 450 518 33,000  Level Atlanta Center
Fri 05:39:26 PM 32.4403 -88.3261 97° East 445 512 33,000  Level Atlanta Center
Fri 05:40:26 PM 32.4264 -88.1828 97° East 440 506 33,000  Level Atlanta Center
Fri 05:41:26 PM 32.4100 -88.0417 98° East 440 506 33,000  Level Atlanta Center
Fri 05:42:26 PM 32.3939 -87.9008 98° East 440 506 33,000  Level Atlanta Center
Fri 05:43:26 PM 32.3794 -87.7575 97° East 440 506 33,000  Level Atlanta Center
Fri 05:44:26 PM 32.3647 -87.6142 97° East 435 501 33,000  Level Atlanta Center
Fri 05:45:26 PM 32.3522 -87.4711 96° East 435 501 33,000  Level Atlanta Center
Fri 05:46:26 PM 32.3356 -87.3108 97° East 435 501 33,000  Level Atlanta Center
Fri 05:47:26 PM 32.3228 -87.1678 96° East 441 507 33,000  Level Atlanta Center
Fri 05:48:26 PM 32.3158 -87.0250 93° East 441 507 33,000  Level Atlanta Center
Fri 05:49:26 PM 32.3047 -86.8794 95° East 447 514 33,000  Level Atlanta Center
Fri 05:50:26 PM 32.2931 -86.7392 96° East 442 509 33,000  Level Atlanta Center
Fri 05:52:26 PM 32.2106 -86.4961 112° Southeast 413 475 33,000  Level Atlanta Center
Fri 05:53:26 PM 32.1403 -86.3592 121° Southeast 423 487 33,000  Level Atlanta Center
Fri 05:54:50 PM 32.0444 -86.2244 130° Southeast 434 499 33,000  Level Atlanta Center
Fri 05:57:07 PM 31.8342 -86.0006 138° Southeast 437 503 33,000  Level Jacksonville Center
Fri 05:58:07 PM 31.7422 -85.9094 140° Southeast 432 497 33,000  Level Jacksonville Center
Fri 05:59:07 PM 31.6525 -85.8164 139° Southeast 432 497 33,000 -150 Level Jacksonville Center
Fri 06:00:07 PM 31.5650 -85.7208 137° Southeast 432 497 32,700 -750 Descending Jacksonville Center
Fri 06:01:07 PM 31.4794 -85.6306 138° Southeast 426 490 31,500 -1,250 Descending Jacksonville Center
Fri 06:02:07 PM 31.3978 -85.5431 138° Southeast 415 478 30,200 -1,350 Descending Jacksonville Center
Fri 06:03:07 PM 31.3078 -85.4408 136° Southeast 409 471 28,800 -1,250 Descending Jacksonville Center
Fri 06:04:07 PM 31.2281 -85.3586 139° Southeast 404 465 27,700 -850 Descending Jacksonville Center
Fri 06:05:07 PM 31.1461 -85.2739 138° Southeast 398 458 27,100 -600 Descending Jacksonville Center
Fri 06:06:07 PM 31.0581 -85.1794 137° Southeast 406 467 26,500 -800 Descending Jacksonville Center
Fri 06:07:07 PM 30.9700 -85.0878 138° Southeast 416 479 25,500 -900 Descending Jacksonville Center
Fri 06:08:07 PM 30.8983 -85.0108 137° Southeast 430 495 24,700 -600 Descending Jacksonville Center
Fri 06:10:07 PM 30.7194 -84.8233 138° Southeast 420 483 23,700 -567 Descending Jacksonville Center
Fri 06:11:07 PM 30.6331 -84.7347 139° Southeast 420 483 23,000 -850 Descending Jacksonville Center
Fri 06:12:07 PM 30.5508 -84.6486 138° Southeast 413 475 22,000 -800 Descending Jacksonville Center
Fri 06:13:07 PM 30.4686 -84.5628 138° Southeast 408 470 21,400 -500 Descending Jacksonville Center
Fri 06:14:07 PM 30.3861 -84.4769 138° Southeast 408 470 21,000 -200 Descending Jacksonville Center
Fri 06:15:07 PM 30.3036 -84.3914 138° Southeast 403 464 21,000 -100 Level Jacksonville Center
Fri 06:16:07 PM 30.2189 -84.3083 140° Southeast 403 464 20,800 -400 Descending Jacksonville Center
Fri 06:17:07 PM 30.1364 -84.2281 140° Southeast 403 464 20,200 -600 Descending Jacksonville Center
Fri 06:18:07 PM 30.0369 -84.1522 147° Southeast 396 456 19,600 -500 Descending Jacksonville Center
Fri 06:19:07 PM 29.9519 -84.0864 146° Southeast 384 442 19,200 -300 Descending Jacksonville Center
Fri 06:20:07 PM 29.8753 -84.0256 145° Southeast 359 413 19,000 -100 Descending Jacksonville Center
Fri 06:21:07 PM 29.8047 -83.9697 146° Southeast 344 396 19,000  Level Jacksonville Center
Fri 06:22:07 PM 29.7281 -83.9092 146° Southeast 344 396 19,000 -50 Level Jacksonville Center
Fri 06:23:07 PM 29.6533 -83.8508 146° Southeast 338 389 18,900  Descending Jacksonville Center
Fri 06:24:07 PM 29.5764 -83.7906 146° Southeast 338 389 19,000 50 Climbing Jacksonville Center
Fri 06:25:07 PM 29.4997 -83.7300 145° Southeast 338 389 19,000  Level Jacksonville Center
Fri 06:26:07 PM 29.4208 -83.6697 146° Southeast 338 389 19,000  Level Jacksonville Center
Fri 06:27:07 PM 29.3417 -83.6072 145° Southeast 338 389 19,000  Level Jacksonville Center
Fri 06:28:07 PM 29.2586 -83.5425 146° Southeast 349 402 19,000  Level Jacksonville Center
Fri 06:29:07 PM 29.1692 -83.4775 148° Southeast 366 421 19,000  Level Jacksonville Center
Fri 06:30:06 PM 29.0756 -83.4178 151° Southeast 381 438 19,000 -300 Level Jacksonville Center
Fri 06:31:07 PM 28.9797 -83.3578 151° Southeast 386 444 18,400 -843 Descending Jacksonville Center
Fri 06:32:07 PM 28.8903 -83.3006 151° Southeast 380 437 17,300 -1,150 Descending Jacksonville Center
Fri 06:33:07 PM 28.7983 -83.2433 151° Southeast 380 437 16,100 -1,207 Descending Jacksonville Center
Fri 06:34:56 PM 28.6333 -83.1333 150° Southeast 355 409 13,900 -1,215 Descending Tampa TRACON
Fri 06:35:50 PM 28.5500 -83.0833 152° Southeast 351 404 12,800 -1,043 Descending Tampa TRACON
Fri 06:36:51 PM 28.4667 -83.0333 152° Southeast 340 391 11,900 -843 Descending Tampa TRACON
Fri 06:37:51 PM 28.4000 -82.9833 147° Southeast 333 383 11,100 -545 Descending Tampa TRACON
Fri 06:38:52 PM 28.3167 -82.9333 152° Southeast 330 380 10,800 -605 Descending Tampa TRACON
Fri 06:39:50 PM 28.2333 -82.9000 161° South 280 322 9,900 -1,282 Descending Tampa TRACON
Fri 06:40:49 PM 28.1833 -82.8333 130° Southeast 283 326 8,300 -1,259 Descending Tampa TRACON
Fri 06:42:13 PM 28.1167 -82.7500 132° Southeast 280 322 6,900 -1,140 Descending Tampa TRACON
Fri 06:42:50 PM 28.0833 -82.7000 127° Southeast 279 321 6,000 -1,096 Descending Tampa TRACON
Fri 06:43:57 PM 28.0333 -82.6500 139° Southeast 253 291 5,000 -458 Descending Tampa TRACON
Fri 06:45:01 PM 27.9667 -82.6167 156° South 201 231 5,000  Level Tampa TRACON

Login

Don't have an account? Register now (free) for customized features, flight alerts, and more!